createdAt,value
2022-11-28T00:00:08.270Z,3.60
2022-11-28T00:02:39.440Z,3.70
2022-11-28T00:05:06.474Z,3.70
2022-11-28T00:07:33.221Z,3.70
2022-11-28T00:10:01.948Z,3.70
2022-11-28T00:12:28.754Z,3.70
2022-11-28T00:14:55.566Z,3.70
2022-11-28T00:17:22.239Z,3.70
2022-11-28T00:19:48.951Z,3.70
2022-11-28T00:22:15.606Z,3.70
2022-11-28T00:24:42.555Z,3.70
2022-11-28T00:27:09.426Z,3.70
2022-11-28T00:29:36.394Z,3.70
2022-11-28T00:32:03.509Z,3.70
2022-11-28T00:34:30.225Z,3.60
2022-11-28T00:36:56.941Z,3.60
2022-11-28T00:39:23.713Z,3.60
2022-11-28T00:41:50.363Z,3.60
2022-11-28T00:44:17.032Z,3.60
2022-11-28T00:46:43.715Z,3.50
2022-11-28T00:49:10.392Z,3.60
2022-11-28T00:51:37.103Z,3.60
2022-11-28T00:54:05.008Z,3.60
2022-11-28T00:56:36.922Z,3.60
2022-11-28T00:59:04.072Z,3.70
2022-11-28T01:01:32.123Z,3.60
2022-11-28T01:03:59.905Z,3.60
2022-11-28T01:06:27.988Z,3.60
2022-11-28T01:08:55.334Z,3.60
2022-11-28T01:11:22.672Z,3.60
2022-11-28T01:13:49.707Z,3.50
2022-11-28T01:16:16.885Z,3.50
2022-11-28T01:18:43.590Z,3.50
2022-11-28T01:21:10.677Z,3.50
2022-11-28T01:23:37.357Z,3.50
2022-11-28T01:26:05.114Z,3.50
2022-11-28T01:28:31.796Z,3.40
2022-11-28T01:31:02.521Z,3.40
2022-11-28T01:33:29.170Z,3.40
2022-11-28T01:35:56.516Z,3.50
2022-11-28T01:38:23.489Z,3.50
2022-11-28T01:40:50.744Z,3.50
2022-11-28T01:43:17.907Z,3.50
2022-11-28T01:45:44.733Z,3.50
2022-11-28T01:48:16.924Z,3.50
2022-11-28T01:50:46.088Z,3.50
2022-11-28T01:53:13.278Z,3.50
2022-11-28T01:55:42.947Z,3.50
2022-11-28T01:58:10.666Z,3.50
2022-11-28T02:00:37.423Z,3.60
2022-11-28T02:03:10.994Z,3.60
2022-11-28T02:05:38.491Z,3.60
2022-11-28T02:08:05.467Z,3.50
2022-11-28T02:10:35.482Z,3.60
2022-11-28T02:13:13.476Z,3.60
2022-11-28T02:15:40.151Z,3.50
2022-11-28T02:18:30.958Z,3.50
2022-11-28T02:21:18.380Z,3.50
2022-11-28T02:23:48.166Z,3.50
2022-11-28T02:26:17.827Z,3.50
2022-11-28T02:29:02.778Z,3.50
2022-11-28T02:31:52.070Z,3.50
2022-11-28T02:34:26.912Z,3.50
2022-11-28T02:37:03.211Z,3.50
2022-11-28T02:39:39.008Z,3.50
2022-11-28T02:42:05.743Z,3.50
2022-11-28T02:44:39.217Z,3.50
2022-11-28T02:47:09.284Z,3.50
2022-11-28T02:49:37.237Z,3.50
2022-11-28T02:52:09.837Z,3.40
2022-11-28T02:54:38.232Z,3.50
2022-11-28T02:57:05.491Z,3.40
2022-11-28T02:59:44.741Z,3.40
2022-11-28T03:02:14.351Z,3.40
2022-11-28T03:04:55.082Z,3.50
2022-11-28T03:07:21.763Z,3.50
2022-11-28T03:09:48.436Z,3.50
2022-11-28T03:12:15.495Z,3.50
2022-11-28T03:14:45.029Z,3.40
2022-11-28T03:17:11.793Z,3.40
2022-11-28T03:19:41.191Z,3.50
2022-11-28T03:22:17.664Z,3.40
2022-11-28T03:24:46.805Z,3.40
2022-11-28T03:27:30.060Z,3.50
2022-11-28T03:29:58.716Z,3.50
2022-11-28T03:32:27.512Z,3.50
2022-11-28T03:34:57.090Z,3.40
2022-11-28T03:37:26.524Z,3.40
2022-11-28T03:39:59.317Z,3.40
2022-11-28T03:42:28.345Z,3.40
2022-11-28T03:45:08.673Z,3.40
2022-11-28T03:47:38.807Z,3.40
2022-11-28T03:50:08.279Z,3.40
2022-11-28T03:52:37.922Z,3.40
2022-11-28T03:55:11.623Z,3.40
2022-11-28T03:57:57.098Z,3.40
2022-11-28T04:00:25.160Z,3.40
2022-11-28T04:03:11.831Z,3.50
2022-11-28T04:05:43.271Z,3.50
2022-11-28T04:08:23.221Z,3.50
2022-11-28T04:10:56.884Z,3.50
2022-11-28T04:13:33.211Z,3.50
2022-11-28T04:16:21.498Z,3.50
2022-11-28T04:18:50.963Z,3.60
2022-11-28T04:21:29.498Z,3.60
2022-11-28T04:23:59.691Z,3.60
2022-11-28T04:26:33.152Z,3.60
2022-11-28T04:29:02.539Z,3.60
2022-11-28T04:31:30.004Z,3.50
2022-11-28T04:33:59.150Z,3.50
2022-11-28T04:36:26.825Z,3.50
2022-11-28T04:38:57.333Z,3.50
2022-11-28T04:41:31.003Z,3.50
2022-11-28T04:44:03.439Z,3.50
2022-11-28T04:46:38.136Z,3.50
2022-11-28T04:49:05.124Z,3.40
2022-11-28T04:51:50.602Z,3.40
2022-11-28T04:54:22.484Z,3.50
2022-11-28T04:56:55.490Z,3.50
2022-11-28T04:59:24.234Z,3.50
2022-11-28T05:01:50.983Z,3.50
2022-11-28T05:04:17.884Z,3.60
2022-11-28T05:06:45.048Z,3.60
2022-11-28T05:09:12.452Z,3.60
2022-11-28T05:11:39.675Z,3.60
2022-11-28T05:14:06.827Z,3.60
2022-11-28T05:16:33.662Z,3.60
2022-11-28T05:19:00.463Z,3.60
2022-11-28T05:21:27.611Z,3.60
2022-11-28T05:23:54.328Z,3.60
2022-11-28T05:26:21.419Z,3.60
2022-11-28T05:28:50.113Z,3.70
2022-11-28T05:31:18.572Z,3.70
2022-11-28T05:33:45.286Z,3.70
2022-11-28T05:36:13.646Z,3.70
2022-11-28T05:38:40.984Z,3.70
2022-11-28T05:41:07.852Z,3.70
2022-11-28T05:43:34.552Z,3.70
2022-11-28T05:46:04.024Z,3.70
2022-11-28T05:48:30.832Z,3.70
2022-11-28T05:50:57.599Z,3.60
2022-11-28T05:53:24.397Z,3.60
2022-11-28T05:55:51.061Z,3.60
2022-11-28T05:58:17.772Z,3.60
2022-11-28T06:00:44.507Z,3.60
2022-11-28T06:03:11.210Z,3.50
2022-11-28T06:05:43.753Z,3.50
2022-11-28T06:08:13.889Z,3.50
2022-11-28T06:10:40.733Z,3.50
2022-11-28T06:13:07.714Z,3.50
2022-11-28T06:15:37.813Z,3.50
2022-11-28T06:18:05.410Z,3.50
2022-11-28T06:20:34.469Z,3.50
2022-11-28T06:23:01.330Z,3.50
2022-11-28T06:25:28.144Z,3.50
2022-11-28T06:27:54.909Z,3.50
2022-11-28T06:30:21.682Z,3.50
2022-11-28T06:32:48.356Z,3.50
2022-11-28T06:35:15.080Z,3.60
2022-11-28T06:37:41.801Z,3.60
2022-11-28T06:40:08.532Z,3.60
2022-11-28T06:42:36.248Z,3.60
2022-11-28T06:45:06.719Z,3.60
2022-11-28T06:47:33.372Z,3.60
2022-11-28T06:50:00.082Z,3.60
2022-11-28T06:52:26.771Z,3.60
2022-11-28T06:54:53.489Z,3.60
2022-11-28T06:57:20.221Z,3.60
2022-11-28T06:59:48.157Z,3.60
2022-11-28T07:02:14.979Z,3.60
2022-11-28T07:04:41.697Z,3.60
2022-11-28T07:07:11.505Z,3.60
2022-11-28T07:09:40.903Z,3.60
2022-11-28T07:12:07.883Z,3.70
2022-11-28T07:14:37.014Z,3.70
2022-11-28T07:17:04.845Z,3.70
2022-11-28T07:19:31.596Z,3.70
2022-11-28T07:21:58.498Z,3.70
2022-11-28T07:24:25.295Z,3.70
2022-11-28T07:26:52.137Z,3.70
2022-11-28T07:29:19.221Z,3.70
2022-11-28T07:31:46.037Z,3.70
2022-11-28T07:34:12.886Z,3.70
2022-11-28T07:36:39.927Z,3.70
2022-11-28T07:39:08.606Z,3.70
2022-11-28T07:41:35.695Z,3.70
2022-11-28T07:44:03.759Z,3.70
2022-11-28T07:46:31.301Z,3.80
2022-11-28T07:48:58.132Z,3.80
2022-11-28T07:51:26.000Z,3.90
2022-11-28T07:53:53.017Z,3.90
2022-11-28T07:56:21.474Z,3.90
2022-11-28T07:58:48.587Z,4.00
2022-11-28T08:01:16.939Z,4.10
2022-11-28T08:03:44.829Z,4.20
2022-11-28T08:06:12.088Z,4.30
2022-11-28T08:08:38.920Z,4.40
2022-11-28T08:11:07.241Z,4.60
2022-11-28T08:13:34.695Z,4.70
2022-11-28T08:16:09.000Z,4.80
2022-11-28T08:18:36.280Z,5.00
2022-11-28T08:21:07.183Z,5.20
2022-11-28T08:23:34.742Z,5.40
2022-11-28T08:26:02.394Z,5.60
2022-11-28T08:28:29.446Z,5.60
2022-11-28T08:30:56.356Z,5.40
2022-11-28T08:33:24.554Z,5.20
2022-11-28T08:35:51.824Z,5.00
2022-11-28T08:38:18.674Z,4.80
2022-11-28T08:40:45.352Z,4.70
2022-11-28T08:43:12.002Z,4.60
2022-11-28T08:45:38.894Z,4.50
2022-11-28T08:48:05.958Z,4.50
2022-11-28T08:50:32.680Z,4.40
2022-11-28T08:53:01.827Z,4.40
2022-11-28T08:55:39.083Z,4.40
2022-11-28T08:58:08.618Z,4.30
2022-11-28T09:00:35.361Z,4.30
2022-11-28T09:03:02.280Z,4.30
2022-11-28T09:05:29.665Z,4.30
2022-11-28T09:07:56.829Z,4.30
2022-11-28T09:10:24.916Z,4.40
2022-11-28T09:12:51.812Z,4.40
2022-11-28T09:15:19.266Z,4.40
2022-11-28T09:17:46.398Z,4.50
2022-11-28T09:20:13.143Z,4.50
2022-11-28T09:22:40.765Z,4.50
2022-11-28T09:25:07.812Z,4.60
2022-11-28T09:27:34.504Z,4.60
2022-11-28T09:30:01.172Z,4.60
2022-11-28T09:32:27.879Z,4.60
2022-11-28T09:34:54.640Z,4.70
2022-11-28T09:37:21.339Z,4.60
2022-11-28T09:40:11.382Z,4.70
2022-11-28T09:42:39.467Z,4.60
2022-11-28T09:45:15.986Z,4.70
2022-11-28T09:47:44.461Z,4.60
2022-11-28T09:50:16.661Z,4.60
2022-11-28T09:53:06.438Z,4.60
2022-11-28T09:55:41.467Z,4.60
2022-11-28T09:58:12.061Z,4.70
2022-11-28T10:00:40.820Z,4.70
2022-11-28T10:03:16.789Z,4.80
2022-11-28T10:05:52.914Z,4.80
2022-11-28T10:08:30.577Z,4.80
2022-11-28T10:11:01.652Z,4.90
2022-11-28T10:14:05.909Z,4.90
2022-11-28T10:16:35.407Z,5.00
2022-11-28T10:19:05.370Z,5.00
2022-11-28T10:21:44.255Z,5.10
2022-11-28T10:24:14.247Z,5.10
2022-11-28T10:26:45.191Z,5.10
2022-11-28T10:29:24.425Z,5.20
2022-11-28T10:31:52.955Z,5.20
2022-11-28T10:34:26.009Z,5.20
2022-11-28T10:36:55.732Z,5.30
2022-11-28T10:39:24.670Z,5.30
2022-11-28T10:42:12.072Z,5.40
2022-11-28T10:44:45.016Z,5.50
2022-11-28T10:47:17.892Z,5.50
2022-11-28T10:49:53.192Z,5.60
2022-11-28T10:52:24.000Z,5.70
2022-11-28T10:54:58.447Z,5.80
2022-11-28T10:57:31.490Z,5.80
2022-11-28T11:00:19.956Z,5.90
2022-11-28T11:02:51.121Z,5.90
2022-11-28T11:05:19.717Z,6.00
2022-11-28T11:07:49.807Z,6.10
2022-11-28T11:10:29.373Z,6.10
2022-11-28T11:12:56.137Z,6.20
2022-11-28T11:15:29.950Z,6.20
2022-11-28T11:17:57.284Z,6.30
2022-11-28T11:20:27.236Z,6.30
2022-11-28T11:22:55.055Z,6.40
2022-11-28T11:25:22.522Z,6.50
2022-11-28T11:27:55.401Z,6.50
2022-11-28T11:30:27.115Z,6.50
2022-11-28T11:32:54.948Z,6.50
2022-11-28T11:35:27.074Z,6.50
2022-11-28T11:37:54.970Z,6.50
2022-11-28T11:40:21.757Z,6.50
2022-11-28T11:43:11.883Z,6.50
2022-11-28T11:45:38.599Z,6.50
2022-11-28T11:48:06.089Z,6.50
2022-11-28T11:50:33.401Z,6.50
2022-11-28T11:53:00.168Z,6.50
2022-11-28T11:55:28.798Z,6.50
2022-11-28T11:58:04.140Z,6.50
2022-11-28T12:00:36.366Z,6.50
2022-11-28T12:03:06.697Z,6.50
2022-11-28T12:08:56.860Z,6.50
2022-11-28T12:11:29.217Z,6.50
2022-11-28T12:13:58.903Z,6.50
2022-11-28T12:16:35.055Z,6.60
2022-11-28T12:19:04.921Z,6.60
2022-11-28T12:21:49.365Z,6.60
2022-11-28T12:24:21.255Z,6.60
2022-11-28T12:26:51.068Z,6.60
2022-11-28T12:29:17.845Z,6.50
2022-11-28T12:31:47.525Z,6.50
2022-11-28T12:34:33.000Z,6.50
2022-11-28T12:37:14.860Z,6.50
2022-11-28T12:40:00.114Z,6.50
2022-11-28T12:42:29.972Z,6.50
2022-11-28T12:45:16.420Z,6.50
2022-11-28T12:48:03.944Z,6.50
2022-11-28T12:50:33.592Z,6.50
2022-11-28T12:53:00.782Z,6.40
2022-11-28T12:55:35.377Z,6.40
2022-11-28T12:58:14.639Z,6.40
2022-11-28T13:00:55.416Z,6.40
2022-11-28T13:03:41.556Z,6.40
2022-11-28T13:06:14.413Z,6.30
2022-11-28T13:08:55.335Z,6.40
2022-11-28T13:11:40.634Z,6.40
2022-11-28T13:14:15.233Z,6.40
2022-11-28T13:16:50.300Z,6.30
2022-11-28T13:19:29.749Z,6.30
2022-11-28T13:22:04.469Z,6.30
2022-11-28T13:24:31.092Z,6.20
2022-11-28T13:27:03.691Z,6.20
2022-11-28T13:29:38.022Z,6.10
2022-11-28T13:32:17.816Z,6.10
2022-11-28T13:34:45.242Z,6.10
2022-11-28T13:40:14.831Z,6.00
2022-11-28T13:43:07.010Z,6.00
2022-11-28T13:45:39.355Z,6.00
2022-11-28T13:51:32.968Z,6.00
2022-11-28T13:54:18.974Z,5.90
2022-11-28T13:56:47.406Z,5.90
2022-11-28T13:59:19.055Z,5.90
2022-11-28T14:01:47.600Z,5.90
2022-11-28T14:04:16.039Z,5.80
2022-11-28T14:06:48.240Z,5.80
2022-11-28T14:09:14.972Z,5.80
2022-11-28T14:11:42.042Z,5.80
2022-11-28T14:14:14.884Z,5.80
2022-11-28T14:16:45.493Z,5.80
2022-11-28T14:19:37.176Z,5.70
2022-11-28T14:22:24.326Z,5.70
2022-11-28T14:25:09.925Z,5.60
2022-11-28T14:27:39.010Z,5.70
2022-11-28T14:30:07.225Z,5.60
2022-11-28T14:32:38.991Z,5.60
2022-11-28T14:35:07.211Z,5.60
2022-11-28T14:37:37.114Z,5.60
2022-11-28T14:40:24.196Z,5.60
2022-11-28T14:43:10.865Z,5.50
2022-11-28T14:45:42.521Z,5.50
2022-11-28T14:48:21.852Z,5.50
2022-11-28T14:50:49.754Z,5.40
2022-11-28T14:53:33.578Z,5.40
2022-11-28T14:56:15.550Z,5.40
2022-11-28T14:58:47.140Z,5.30
2022-11-28T15:01:16.234Z,5.30
2022-11-28T15:03:53.829Z,5.20
2022-11-28T15:06:33.678Z,5.20
2022-11-28T15:09:12.935Z,5.20
2022-11-28T15:12:05.423Z,5.10
2022-11-28T15:14:33.608Z,5.10
2022-11-28T15:17:02.908Z,5.00
2022-11-28T15:19:40.312Z,5.00
2022-11-28T15:22:27.387Z,5.00
2022-11-28T15:24:54.580Z,4.90
2022-11-28T15:27:25.408Z,4.90
2022-11-28T15:29:52.989Z,4.90
2022-11-28T15:32:19.691Z,4.80
2022-11-28T15:34:50.991Z,4.80
2022-11-28T15:37:19.337Z,4.80
2022-11-28T15:39:47.958Z,4.70
2022-11-28T15:42:20.882Z,4.70
2022-11-28T15:44:48.245Z,4.70
2022-11-28T15:47:17.904Z,4.70
2022-11-28T15:49:44.804Z,4.60
2022-11-28T15:52:16.345Z,4.60
2022-11-28T15:54:43.475Z,4.60
2022-11-28T15:57:21.259Z,4.60
2022-11-28T15:59:48.036Z,4.60
2022-11-28T16:02:29.187Z,4.60
2022-11-28T16:05:10.893Z,4.60
2022-11-28T16:07:42.080Z,4.60
2022-11-28T16:10:29.260Z,4.50
2022-11-28T16:12:59.506Z,4.50
2022-11-28T16:15:26.449Z,4.50
2022-11-28T16:17:53.850Z,4.50
2022-11-28T16:20:22.393Z,4.40
2022-11-28T16:22:49.133Z,4.40
2022-11-28T16:25:23.345Z,4.40
2022-11-28T16:27:53.361Z,4.30
2022-11-28T16:30:23.460Z,4.30
2022-11-28T16:32:51.053Z,4.30
2022-11-28T16:35:37.756Z,4.30
2022-11-28T16:38:21.058Z,4.30
2022-11-28T16:40:48.045Z,4.20
2022-11-28T16:43:19.341Z,4.20
2022-11-28T16:45:46.158Z,4.10
2022-11-28T16:48:17.309Z,4.10
2022-11-28T16:51:13.227Z,4.10
2022-11-28T16:53:39.886Z,4.20
2022-11-28T16:56:22.793Z,4.20
2022-11-28T16:58:51.394Z,4.20
2022-11-28T17:01:18.168Z,4.20
2022-11-28T17:03:52.176Z,4.20
2022-11-28T17:06:18.840Z,4.20
2022-11-28T17:08:45.845Z,4.30
2022-11-28T17:11:13.108Z,4.20
2022-11-28T17:13:40.195Z,4.30
2022-11-28T17:16:10.357Z,4.20
2022-11-28T17:18:37.066Z,4.30
2022-11-28T17:21:03.819Z,4.20
2022-11-28T17:23:30.561Z,4.20
2022-11-28T17:25:57.229Z,4.20
2022-11-28T17:28:28.902Z,4.20
2022-11-28T17:30:55.830Z,4.10
2022-11-28T17:33:23.014Z,4.10
2022-11-28T17:35:51.091Z,4.10
2022-11-28T17:38:17.911Z,4.10
2022-11-28T17:40:46.678Z,4.10
2022-11-28T17:43:20.770Z,4.10
2022-11-28T17:45:50.558Z,4.00
2022-11-28T17:48:18.008Z,4.00
2022-11-28T17:50:46.185Z,4.00
2022-11-28T17:53:13.956Z,3.90
2022-11-28T17:55:42.099Z,3.90
2022-11-28T17:58:15.629Z,3.80
2022-11-28T18:00:42.455Z,3.80
2022-11-28T18:03:09.211Z,3.80
2022-11-28T18:05:36.963Z,3.80
2022-11-28T18:08:04.145Z,3.70
2022-11-28T18:10:31.233Z,3.70
2022-11-28T18:12:57.949Z,3.60
2022-11-28T18:15:25.916Z,3.60
2022-11-28T18:17:53.209Z,3.60
2022-11-28T18:20:20.116Z,3.50
2022-11-28T18:22:47.452Z,3.50
2022-11-28T18:25:14.208Z,3.50
2022-11-28T18:27:40.953Z,3.50
2022-11-28T18:30:08.504Z,3.50
2022-11-28T18:32:35.363Z,3.50
2022-11-28T18:35:02.109Z,3.60
2022-11-28T18:37:28.855Z,3.60
2022-11-28T18:39:55.570Z,3.60
2022-11-28T18:42:22.612Z,3.60
2022-11-28T18:44:50.143Z,3.70
2022-11-28T18:47:17.067Z,3.60
2022-11-28T18:49:44.130Z,3.60
2022-11-28T18:52:11.215Z,3.60
2022-11-28T18:54:38.544Z,3.70
2022-11-28T18:57:08.300Z,3.70
2022-11-28T18:59:35.088Z,3.70
2022-11-28T19:02:02.278Z,3.70
2022-11-28T19:04:29.115Z,3.70
2022-11-28T19:06:55.862Z,3.70
2022-11-28T19:09:22.574Z,3.70
2022-11-28T19:11:49.291Z,3.80
2022-11-28T19:14:18.315Z,3.70
2022-11-28T19:16:45.711Z,3.80
2022-11-28T19:19:16.531Z,3.70
2022-11-28T19:21:43.473Z,3.80
2022-11-28T19:24:12.821Z,3.80
2022-11-28T19:26:39.753Z,3.80
2022-11-28T19:29:06.641Z,3.80
2022-11-28T19:31:34.444Z,3.80
2022-11-28T19:34:10.171Z,3.90
2022-11-28T19:36:39.422Z,3.90
2022-11-28T19:39:06.986Z,3.90
2022-11-28T19:41:34.482Z,3.90
2022-11-28T19:44:01.395Z,3.80
2022-11-28T19:46:33.809Z,3.80
2022-11-28T19:49:03.731Z,3.90
2022-11-28T19:51:30.413Z,3.90
2022-11-28T19:54:02.887Z,3.90
2022-11-28T19:56:32.373Z,3.90
2022-11-28T19:58:59.525Z,3.90
2022-11-28T20:01:28.156Z,3.90
2022-11-28T20:03:55.733Z,3.90
2022-11-28T20:06:26.667Z,4.00
2022-11-28T20:08:55.109Z,4.00
2022-11-28T20:11:23.660Z,4.00
2022-11-28T20:13:55.120Z,3.90
2022-11-28T20:16:21.941Z,3.90
2022-11-28T20:18:48.793Z,3.90
2022-11-28T20:21:16.623Z,3.90
2022-11-28T20:23:44.593Z,3.90
2022-11-28T20:26:11.822Z,3.90
2022-11-28T20:28:39.376Z,3.90
2022-11-28T20:31:06.793Z,3.90
2022-11-28T20:33:33.918Z,3.90
2022-11-28T20:36:04.466Z,3.90
2022-11-28T20:38:31.143Z,4.00
2022-11-28T20:41:01.394Z,4.00
2022-11-28T20:43:31.604Z,4.00
2022-11-28T20:46:05.201Z,4.00
2022-11-28T20:48:31.923Z,4.10
2022-11-28T20:50:58.771Z,4.10
2022-11-28T20:53:27.085Z,4.20
2022-11-28T20:56:01.285Z,4.30
2022-11-28T20:58:28.752Z,4.20
2022-11-28T21:00:56.037Z,4.30
2022-11-28T21:03:23.264Z,4.30
2022-11-28T21:05:50.079Z,4.30
2022-11-28T21:08:16.763Z,4.30
2022-11-28T21:10:43.704Z,4.40
2022-11-28T21:13:10.552Z,4.30
2022-11-28T21:15:41.213Z,4.40
2022-11-28T21:18:09.102Z,4.40
2022-11-28T21:20:38.979Z,4.40
2022-11-28T21:23:05.649Z,4.40
2022-11-28T21:25:35.011Z,4.40
2022-11-28T21:28:01.686Z,4.40
2022-11-28T21:30:28.377Z,4.50
2022-11-28T21:32:55.075Z,4.50
2022-11-28T21:35:21.743Z,4.50
2022-11-28T21:37:48.412Z,4.50
2022-11-28T21:40:15.211Z,4.50
2022-11-28T21:42:41.915Z,4.50
2022-11-28T21:45:09.060Z,4.50
2022-11-28T21:47:35.832Z,4.50
2022-11-28T21:50:02.550Z,4.50
2022-11-28T21:52:29.525Z,4.50
2022-11-28T21:54:56.280Z,4.50
2022-11-28T21:57:22.988Z,4.50
2022-11-28T21:59:49.692Z,4.50
2022-11-28T22:02:17.063Z,4.40
2022-11-28T22:04:44.636Z,4.40
2022-11-28T22:07:12.340Z,4.30
2022-11-28T22:09:39.127Z,4.30
2022-11-28T22:12:06.167Z,4.30
2022-11-28T22:14:36.818Z,4.30
2022-11-28T22:17:03.807Z,4.30
2022-11-28T22:19:30.504Z,4.30
2022-11-28T22:21:57.557Z,4.30
2022-11-28T22:24:24.691Z,4.30
2022-11-28T22:26:52.896Z,4.30
2022-11-28T22:29:19.600Z,4.40
2022-11-28T22:31:46.369Z,4.40
2022-11-28T22:34:13.494Z,4.40
2022-11-28T22:36:40.500Z,4.50
2022-11-28T22:39:10.109Z,4.50
2022-11-28T22:41:36.884Z,4.50
2022-11-28T22:44:04.337Z,4.50
2022-11-28T22:46:31.466Z,4.50
2022-11-28T22:49:00.176Z,4.50
2022-11-28T22:51:28.240Z,4.50
2022-11-28T22:53:55.733Z,4.60
2022-11-28T22:56:25.435Z,4.60
2022-11-28T22:58:52.165Z,4.60
2022-11-28T23:01:20.995Z,4.50
2022-11-28T23:03:48.114Z,4.50
2022-11-28T23:06:16.183Z,4.60
2022-11-28T23:08:43.205Z,4.60
2022-11-28T23:11:14.620Z,4.60
2022-11-28T23:13:41.720Z,4.60
2022-11-28T23:16:09.449Z,4.60
2022-11-28T23:18:36.266Z,4.60
2022-11-28T23:21:02.950Z,4.60
2022-11-28T23:23:31.027Z,4.60
2022-11-28T23:25:57.747Z,4.60
2022-11-28T23:28:24.795Z,4.60
2022-11-28T23:30:51.476Z,4.70
2022-11-28T23:33:18.152Z,4.70
2022-11-28T23:35:45.008Z,4.70
2022-11-28T23:38:11.842Z,4.70
2022-11-28T23:40:38.514Z,4.70
2022-11-28T23:43:05.167Z,4.70
2022-11-28T23:45:31.846Z,4.70
2022-11-28T23:47:58.525Z,4.70
2022-11-28T23:50:25.480Z,4.70
2022-11-28T23:52:52.196Z,4.70
2022-11-28T23:55:18.859Z,4.70
2022-11-28T23:57:45.534Z,4.70
